Marshall, Missouri
Current Conditions -  °F | °C
As of 10:53 AM on Monday 22 Dec 2014 (Local Time) from KDMO Reporting Station
Light Rain Light Rain  
Wind Chill: 41°   Ceiling: 1300
Heat Index: 46°   Visibility: 10mi
Dew Point: 42°   Wind: 12mph
Humidity: 86%   Direction: 150°SSE
Pressure: 29.6"   Gusts: NA
Location:  39.12°N, 93.19°W
Report Text: KDMO 221653Z AUTO 15010KT 10SM -RA BKN013 OVC018 08/06 A2960 RMK AO2 RAB42 SLP025 P0000 T00780056
Loading
Personal Weather Stations






























Interactive Weather Map New forecast layout! Learn more

10-Day Weather Forecast

Advertisements
Track Severe Weather on mobile